sensor_id;sensor_type;location;lat;lon;timestamp;temperature;humidity
27759;DHT22;15148;48.972;12.794;2023-02-11T00:02:50;-4.50;99.90
27759;DHT22;15148;48.972;12.794;2023-02-11T00:07:52;-4.60;99.90
27759;DHT22;15148;48.972;12.794;2023-02-11T00:12:54;-4.70;99.90
27759;DHT22;15148;48.972;12.794;2023-02-11T00:17:56;-4.70;99.90
27759;DHT22;15148;48.972;12.794;2023-02-11T00:22:58;-4.70;99.90
27759;DHT22;15148;48.972;12.794;2023-02-11T00:28:00;-4.70;99.90
27759;DHT22;15148;48.972;12.794;2023-02-11T00:33:02;-4.60;99.90
27759;DHT22;15148;48.972;12.794;2023-02-11T00:38:06;-4.60;99.90
27759;DHT22;15148;48.972;12.794;2023-02-11T00:43:07;-4.60;99.90
27759;DHT22;15148;48.972;12.794;2023-02-11T00:48:09;-4.70;99.90
27759;DHT22;15148;48.972;12.794;2023-02-11T00:53:11;-4.70;99.90
27759;DHT22;15148;48.972;12.794;2023-02-11T00:58:13;-4.70;99.90
27759;DHT22;15148;48.972;12.794;2023-02-11T01:03:16;-4.70;99.90
27759;DHT22;15148;48.972;12.794;2023-02-11T01:08:18;-4.70;99.90
27759;DHT22;15148;48.972;12.794;2023-02-11T01:13:20;-4.70;99.90
27759;DHT22;15148;48.972;12.794;2023-02-11T01:18:22;-4.70;99.90
27759;DHT22;15148;48.972;12.794;2023-02-11T01:23:25;-4.70;99.90
27759;DHT22;15148;48.972;12.794;2023-02-11T01:28:28;-4.80;99.90
27759;DHT22;15148;48.972;12.794;2023-02-11T01:33:32;-4.70;99.90
27759;DHT22;15148;48.972;12.794;2023-02-11T01:38:34;-4.80;99.90
27759;DHT22;15148;48.972;12.794;2023-02-11T01:43:39;-4.70;99.90
27759;DHT22;15148;48.972;12.794;2023-02-11T01:48:44;-4.70;99.90
27759;DHT22;15148;48.972;12.794;2023-02-11T01:53:49;-4.70;99.90
27759;DHT22;15148;48.972;12.794;2023-02-11T01:59:14;-4.70;99.90
27759;DHT22;15148;48.972;12.794;2023-02-11T02:04:18;-4.80;99.90
27759;DHT22;15148;48.972;12.794;2023-02-11T02:09:26;-4.80;99.90
27759;DHT22;15148;48.972;12.794;2023-02-11T02:14:29;-4.80;99.90
27759;DHT22;15148;48.972;12.794;2023-02-11T02:30:31;-4.80;99.90
27759;DHT22;15148;48.972;12.794;2023-02-11T02:35:47;-4.80;99.90
27759;DHT22;15148;48.972;12.794;2023-02-11T02:41:15;-4.80;99.90
27759;DHT22;15148;48.972;12.794;2023-02-11T02:56:47;-5.00;99.90
27759;DHT22;15148;48.972;12.794;2023-02-11T03:02:30;-4.90;99.90
27759;DHT22;15148;48.972;12.794;2023-02-11T03:12:43;-4.90;99.90
27759;DHT22;15148;48.972;12.794;2023-02-11T03:17:48;-4.90;99.90
27759;DHT22;15148;48.972;12.794;2023-02-11T03:22:54;-5.00;99.90
27759;DHT22;15148;48.972;12.794;2023-02-11T03:33:27;-5.00;99.90
27759;DHT22;15148;48.972;12.794;2023-02-11T03:38:37;-5.00;99.90
27759;DHT22;15148;48.972;12.794;2023-02-11T03:43:43;-5.00;99.90
27759;DHT22;15148;48.972;12.794;2023-02-11T03:48:50;-4.90;99.90
27759;DHT22;15148;48.972;12.794;2023-02-11T03:53:54;-4.90;99.90
27759;DHT22;15148;48.972;12.794;2023-02-11T03:58:58;-4.90;99.90
27759;DHT22;15148;48.972;12.794;2023-02-11T04:04:00;-4.70;99.90
27759;DHT22;15148;48.972;12.794;2023-02-11T04:09:02;-4.60;99.90
27759;DHT22;15148;48.972;12.794;2023-02-11T04:14:03;-4.70;99.90
27759;DHT22;15148;48.972;12.794;2023-02-11T04:19:05;-4.70;99.90
27759;DHT22;15148;48.972;12.794;2023-02-11T04:24:07;-4.70;99.90
27759;DHT22;15148;48.972;12.794;2023-02-11T04:29:09;-4.60;99.90
27759;DHT22;15148;48.972;12.794;2023-02-11T04:34:11;-4.60;99.90
27759;DHT22;15148;48.972;12.794;2023-02-11T04:39:13;-4.50;99.90
27759;DHT22;15148;48.972;12.794;2023-02-11T04:44:15;-4.50;99.90
27759;DHT22;15148;48.972;12.794;2023-02-11T04:49:17;-4.40;99.90
27759;DHT22;15148;48.972;12.794;2023-02-11T04:54:19;-4.40;99.90
27759;DHT22;15148;48.972;12.794;2023-02-11T04:59:21;-4.50;99.90
27759;DHT22;15148;48.972;12.794;2023-02-11T05:04:23;-4.50;99.90
27759;DHT22;15148;48.972;12.794;2023-02-11T05:09:25;-4.50;99.90
27759;DHT22;15148;48.972;12.794;2023-02-11T05:14:26;-4.40;99.90
27759;DHT22;15148;48.972;12.794;2023-02-11T05:19:28;-4.40;99.90
27759;DHT22;15148;48.972;12.794;2023-02-11T05:24:33;-4.30;99.90
27759;DHT22;15148;48.972;12.794;2023-02-11T05:29:35;-4.30;99.90
27759;DHT22;15148;48.972;12.794;2023-02-11T05:34:37;-4.20;99.90
27759;DHT22;15148;48.972;12.794;2023-02-11T05:39:39;-4.10;99.90
27759;DHT22;15148;48.972;12.794;2023-02-11T05:44:41;-4.00;99.90
27759;DHT22;15148;48.972;12.794;2023-02-11T05:49:42;-3.90;99.90
27759;DHT22;15148;48.972;12.794;2023-02-11T05:54:44;-3.90;99.90
27759;DHT22;15148;48.972;12.794;2023-02-11T05:59:46;-3.80;99.90
27759;DHT22;15148;48.972;12.794;2023-02-11T06:04:48;-3.80;99.90
27759;DHT22;15148;48.972;12.794;2023-02-11T06:09:50;-3.80;99.90
27759;DHT22;15148;48.972;12.794;2023-02-11T06:14:52;-3.70;99.90
27759;DHT22;15148;48.972;12.794;2023-02-11T06:19:54;-3.60;99.90
27759;DHT22;15148;48.972;12.794;2023-02-11T06:24:55;-3.60;99.90
27759;DHT22;15148;48.972;12.794;2023-02-11T06:30:04;-3.60;99.90
27759;DHT22;15148;48.972;12.794;2023-02-11T06:35:06;-3.60;99.90
27759;DHT22;15148;48.972;12.794;2023-02-11T06:40:12;-3.50;99.90
27759;DHT22;15148;48.972;12.794;2023-02-11T06:45:13;-3.40;99.90
27759;DHT22;15148;48.972;12.794;2023-02-11T06:50:15;-3.40;99.90
27759;DHT22;15148;48.972;12.794;2023-02-11T06:55:17;-3.20;99.90
27759;DHT22;15148;48.972;12.794;2023-02-11T07:00:19;-3.10;99.90
27759;DHT22;15148;48.972;12.794;2023-02-11T07:05:21;-3.10;99.90
27759;DHT22;15148;48.972;12.794;2023-02-11T07:10:23;-3.00;99.90
27759;DHT22;15148;48.972;12.794;2023-02-11T07:15:25;-3.00;99.90
27759;DHT22;15148;48.972;12.794;2023-02-11T07:20:27;-2.90;99.90
27759;DHT22;15148;48.972;12.794;2023-02-11T07:25:29;-2.80;99.90
27759;DHT22;15148;48.972;12.794;2023-02-11T07:30:31;-2.70;99.90
27759;DHT22;15148;48.972;12.794;2023-02-11T07:35:33;-2.60;99.90
27759;DHT22;15148;48.972;12.794;2023-02-11T07:40:35;-2.40;99.90
27759;DHT22;15148;48.972;12.794;2023-02-11T07:45:38;-2.30;99.90
27759;DHT22;15148;48.972;12.794;2023-02-11T07:50:40;-2.20;99.90
27759;DHT22;15148;48.972;12.794;2023-02-11T07:55:42;-2.10;99.90
27759;DHT22;15148;48.972;12.794;2023-02-11T08:00:44;-2.00;99.90
27759;DHT22;15148;48.972;12.794;2023-02-11T08:05:46;-1.90;99.90
27759;DHT22;15148;48.972;12.794;2023-02-11T08:10:48;-1.80;99.90
27759;DHT22;15148;48.972;12.794;2023-02-11T08:15:50;-1.70;99.90
27759;DHT22;15148;48.972;12.794;2023-02-11T08:20:52;-1.60;99.90
27759;DHT22;15148;48.972;12.794;2023-02-11T08:25:54;-1.60;99.90
27759;DHT22;15148;48.972;12.794;2023-02-11T08:30:56;-1.50;99.90
27759;DHT22;15148;48.972;12.794;2023-02-11T08:35:59;-1.50;99.90
27759;DHT22;15148;48.972;12.794;2023-02-11T08:41:00;-1.40;99.90
27759;DHT22;15148;48.972;12.794;2023-02-11T08:46:02;-1.30;99.90
27759;DHT22;15148;48.972;12.794;2023-02-11T08:51:07;-1.10;99.90
27759;DHT22;15148;48.972;12.794;2023-02-11T08:56:10;-1.00;99.90
27759;DHT22;15148;48.972;12.794;2023-02-11T09:01:19;-0.90;99.90
27759;DHT22;15148;48.972;12.794;2023-02-11T09:06:24;-0.80;99.90
27759;DHT22;15148;48.972;12.794;2023-02-11T09:11:31;-0.80;99.90
27759;DHT22;15148;48.972;12.794;2023-02-11T09:16:35;-0.70;99.90
27759;DHT22;15148;48.972;12.794;2023-02-11T09:21:36;-0.60;99.90
27759;DHT22;15148;48.972;12.794;2023-02-11T09:26:40;-0.50;99.90
27759;DHT22;15148;48.972;12.794;2023-02-11T09:31:42;-0.40;99.90
27759;DHT22;15148;48.972;12.794;2023-02-11T09:36:45;-0.30;99.90
27759;DHT22;15148;48.972;12.794;2023-02-11T09:47:31;-0.20;99.90
27759;DHT22;15148;48.972;12.794;2023-02-11T09:52:50;-0.10;99.90
27759;DHT22;15148;48.972;12.794;2023-02-11T09:57:55;0.10;99.90
27759;DHT22;15148;48.972;12.794;2023-02-11T10:24:15;0.60;99.90
27759;DHT22;15148;48.972;12.794;2023-02-11T10:29:40;0.70;99.90
27759;DHT22;15148;48.972;12.794;2023-02-11T10:34:44;0.80;99.90
27759;DHT22;15148;48.972;12.794;2023-02-11T10:39:45;0.90;99.90
27759;DHT22;15148;48.972;12.794;2023-02-11T10:44:56;1.00;99.90
27759;DHT22;15148;48.972;12.794;2023-02-11T10:49:58;1.20;99.90
27759;DHT22;15148;48.972;12.794;2023-02-11T10:55:17;1.30;99.90
27759;DHT22;15148;48.972;12.794;2023-02-11T11:00:40;1.30;99.90
27759;DHT22;15148;48.972;12.794;2023-02-11T11:05:50;1.40;99.90
27759;DHT22;15148;48.972;12.794;2023-02-11T11:11:04;1.50;99.90
27759;DHT22;15148;48.972;12.794;2023-02-11T11:26:16;1.80;99.90
27759;DHT22;15148;48.972;12.794;2023-02-11T11:31:33;1.80;99.90
27759;DHT22;15148;48.972;12.794;2023-02-11T11:36:37;1.80;99.90
27759;DHT22;15148;48.972;12.794;2023-02-11T11:41:50;1.90;99.90
27759;DHT22;15148;48.972;12.794;2023-02-11T11:52:32;2.00;99.90
27759;DHT22;15148;48.972;12.794;2023-02-11T11:57:37;2.00;99.90
27759;DHT22;15148;48.972;12.794;2023-02-11T12:55:39;2.00;99.90
27759;DHT22;15148;48.972;12.794;2023-02-11T13:00:56;2.00;99.90
27759;DHT22;15148;48.972;12.794;2023-02-11T13:06:04;2.20;99.90
27759;DHT22;15148;48.972;12.794;2023-02-11T13:11:12;2.10;99.90
27759;DHT22;15148;48.972;12.794;2023-02-11T13:16:40;2.20;99.90
27759;DHT22;15148;48.972;12.794;2023-02-11T13:27:47;2.10;99.90
27759;DHT22;15148;48.972;12.794;2023-02-11T13:32:23;2.10;99.90
27759;DHT22;15148;48.972;12.794;2023-02-11T13:37:36;2.00;99.90
27759;DHT22;15148;48.972;12.794;2023-02-11T13:42:50;2.00;99.90
27759;DHT22;15148;48.972;12.794;2023-02-11T13:48:02;2.00;99.90
27759;DHT22;15148;48.972;12.794;2023-02-11T13:53:06;1.90;99.90
27759;DHT22;15148;48.972;12.794;2023-02-11T14:03:35;1.90;99.90
27759;DHT22;15148;48.972;12.794;2023-02-11T14:30:49;1.90;99.90
27759;DHT22;15148;48.972;12.794;2023-02-11T14:40:45;1.90;99.90
27759;DHT22;15148;48.972;12.794;2023-02-11T14:45:53;1.90;99.90
27759;DHT22;15148;48.972;12.794;2023-02-11T14:51:03;1.80;99.90
27759;DHT22;15148;48.972;12.794;2023-02-11T14:56:24;1.80;99.90
27759;DHT22;15148;48.972;12.794;2023-02-11T15:01:38;1.80;99.90
27759;DHT22;15148;48.972;12.794;2023-02-11T15:06:46;1.80;99.90
27759;DHT22;15148;48.972;12.794;2023-02-11T15:11:52;1.80;99.90
27759;DHT22;15148;48.972;12.794;2023-02-11T15:17:03;1.90;99.90
27759;DHT22;15148;48.972;12.794;2023-02-11T15:27:18;1.90;99.90
27759;DHT22;15148;48.972;12.794;2023-02-11T15:32:23;1.80;99.90
27759;DHT22;15148;48.972;12.794;2023-02-11T15:37:28;1.80;99.90
27759;DHT22;15148;48.972;12.794;2023-02-11T15:42:30;1.70;99.90
27759;DHT22;15148;48.972;12.794;2023-02-11T15:47:53;1.70;99.90
27759;DHT22;15148;48.972;12.794;2023-02-11T15:58:36;1.60;99.90
27759;DHT22;15148;48.972;12.794;2023-02-11T16:03:40;1.50;99.90
27759;DHT22;15148;48.972;12.794;2023-02-11T16:08:56;1.40;99.90
27759;DHT22;15148;48.972;12.794;2023-02-11T16:14:00;1.40;99.90
27759;DHT22;15148;48.972;12.794;2023-02-11T16:19:03;1.30;99.90
27759;DHT22;15148;48.972;12.794;2023-02-11T16:24:13;1.30;99.90
27759;DHT22;15148;48.972;12.794;2023-02-11T16:29:24;1.30;99.90
27759;DHT22;15148;48.972;12.794;2023-02-11T16:34:30;1.20;99.90
27759;DHT22;15148;48.972;12.794;2023-02-11T16:39:35;1.20;99.90
27759;DHT22;15148;48.972;12.794;2023-02-11T16:44:37;1.20;99.90
27759;DHT22;15148;48.972;12.794;2023-02-11T16:49:41;1.20;99.90
27759;DHT22;15148;48.972;12.794;2023-02-11T16:54:43;1.10;99.90
27759;DHT22;15148;48.972;12.794;2023-02-11T16:59:47;1.10;99.90
27759;DHT22;15148;48.972;12.794;2023-02-11T17:04:59;1.10;99.90
27759;DHT22;15148;48.972;12.794;2023-02-11T17:10:20;1.10;99.90
27759;DHT22;15148;48.972;12.794;2023-02-11T17:15:34;1.10;99.90
27759;DHT22;15148;48.972;12.794;2023-02-11T17:20:45;1.10;99.90
27759;DHT22;15148;48.972;12.794;2023-02-11T17:25:55;1.10;99.90
27759;DHT22;15148;48.972;12.794;2023-02-11T17:31:00;1.00;99.90
27759;DHT22;15148;48.972;12.794;2023-02-11T17:36:08;1.00;99.90
27759;DHT22;15148;48.972;12.794;2023-02-11T17:41:16;1.00;99.90
27759;DHT22;15148;48.972;12.794;2023-02-11T17:46:23;1.00;99.90
27759;DHT22;15148;48.972;12.794;2023-02-11T17:51:31;1.00;99.90
27759;DHT22;15148;48.972;12.794;2023-02-11T17:56:34;1.00;99.90
27759;DHT22;15148;48.972;12.794;2023-02-11T18:01:38;1.00;99.90
27759;DHT22;15148;48.972;12.794;2023-02-11T18:06:40;1.00;99.90
27759;DHT22;15148;48.972;12.794;2023-02-11T18:12:21;1.00;99.90
27759;DHT22;15148;48.972;12.794;2023-02-11T18:17:26;1.00;99.90
27759;DHT22;15148;48.972;12.794;2023-02-11T18:22:28;1.00;99.90
27759;DHT22;15148;48.972;12.794;2023-02-11T18:27:34;1.00;99.90
27759;DHT22;15148;48.972;12.794;2023-02-11T18:32:36;1.00;99.90
27759;DHT22;15148;48.972;12.794;2023-02-11T18:37:38;1.00;99.90
27759;DHT22;15148;48.972;12.794;2023-02-11T18:42:41;1.00;99.90
27759;DHT22;15148;48.972;12.794;2023-02-11T18:47:43;1.00;99.90
27759;DHT22;15148;48.972;12.794;2023-02-11T18:52:47;1.00;99.90
27759;DHT22;15148;48.972;12.794;2023-02-11T18:57:49;1.00;99.90
27759;DHT22;15148;48.972;12.794;2023-02-11T19:02:51;1.00;99.90
27759;DHT22;15148;48.972;12.794;2023-02-11T19:07:56;1.00;99.90
27759;DHT22;15148;48.972;12.794;2023-02-11T19:12:58;1.00;99.90
27759;DHT22;15148;48.972;12.794;2023-02-11T19:18:00;1.00;99.90
27759;DHT22;15148;48.972;12.794;2023-02-11T19:23:02;1.00;99.90
27759;DHT22;15148;48.972;12.794;2023-02-11T19:28:04;1.00;99.90
27759;DHT22;15148;48.972;12.794;2023-02-11T19:33:06;1.00;99.90
27759;DHT22;15148;48.972;12.794;2023-02-11T19:38:10;0.90;99.90
27759;DHT22;15148;48.972;12.794;2023-02-11T19:43:14;0.90;99.90
27759;DHT22;15148;48.972;12.794;2023-02-11T19:48:16;1.00;99.90
27759;DHT22;15148;48.972;12.794;2023-02-11T19:53:17;0.90;99.90
27759;DHT22;15148;48.972;12.794;2023-02-11T19:58:19;1.00;99.90
27759;DHT22;15148;48.972;12.794;2023-02-11T20:03:21;0.90;99.90
27759;DHT22;15148;48.972;12.794;2023-02-11T20:08:23;0.90;99.90
27759;DHT22;15148;48.972;12.794;2023-02-11T20:13:25;1.00;99.90
27759;DHT22;15148;48.972;12.794;2023-02-11T20:18:26;1.00;99.90
27759;DHT22;15148;48.972;12.794;2023-02-11T20:23:28;1.00;99.90
27759;DHT22;15148;48.972;12.794;2023-02-11T20:28:30;1.00;99.90
27759;DHT22;15148;48.972;12.794;2023-02-11T20:33:33;1.00;99.90
27759;DHT22;15148;48.972;12.794;2023-02-11T20:38:35;1.00;99.90
27759;DHT22;15148;48.972;12.794;2023-02-11T20:43:38;1.00;99.90
27759;DHT22;15148;48.972;12.794;2023-02-11T20:48:40;1.00;99.90
27759;DHT22;15148;48.972;12.794;2023-02-11T20:53:43;1.00;99.90
27759;DHT22;15148;48.972;12.794;2023-02-11T20:58:48;1.00;99.90
27759;DHT22;15148;48.972;12.794;2023-02-11T21:03:59;1.00;99.90
27759;DHT22;15148;48.972;12.794;2023-02-11T21:09:04;1.00;99.90
27759;DHT22;15148;48.972;12.794;2023-02-11T21:14:06;0.90;99.90
27759;DHT22;15148;48.972;12.794;2023-02-11T21:19:08;0.90;99.90
27759;DHT22;15148;48.972;12.794;2023-02-11T21:24:10;0.90;99.90
27759;DHT22;15148;48.972;12.794;2023-02-11T21:29:12;0.90;99.90
27759;DHT22;15148;48.972;12.794;2023-02-11T21:34:14;0.90;99.90
27759;DHT22;15148;48.972;12.794;2023-02-11T21:39:17;0.90;99.90
27759;DHT22;15148;48.972;12.794;2023-02-11T21:44:20;0.90;99.90
27759;DHT22;15148;48.972;12.794;2023-02-11T21:49:22;1.00;99.90
27759;DHT22;15148;48.972;12.794;2023-02-11T21:54:24;1.00;99.90
27759;DHT22;15148;48.972;12.794;2023-02-11T21:59:29;1.00;99.90
27759;DHT22;15148;48.972;12.794;2023-02-11T22:04:32;1.00;99.90
27759;DHT22;15148;48.972;12.794;2023-02-11T22:09:37;1.00;99.90
27759;DHT22;15148;48.972;12.794;2023-02-11T22:14:39;0.90;99.90
27759;DHT22;15148;48.972;12.794;2023-02-11T22:19:41;1.00;99.90
27759;DHT22;15148;48.972;12.794;2023-02-11T22:24:43;1.00;99.90
27759;DHT22;15148;48.972;12.794;2023-02-11T22:29:48;1.00;99.90
27759;DHT22;15148;48.972;12.794;2023-02-11T22:34:50;1.00;99.90
27759;DHT22;15148;48.972;12.794;2023-02-11T22:39:54;0.90;99.90
27759;DHT22;15148;48.972;12.794;2023-02-11T22:44:55;1.00;99.90
27759;DHT22;15148;48.972;12.794;2023-02-11T22:49:57;1.00;99.90
27759;DHT22;15148;48.972;12.794;2023-02-11T22:54:59;0.90;99.90
27759;DHT22;15148;48.972;12.794;2023-02-11T23:00:01;0.90;99.90
27759;DHT22;15148;48.972;12.794;2023-02-11T23:05:05;1.00;99.90
27759;DHT22;15148;48.972;12.794;2023-02-11T23:10:07;1.00;99.90
27759;DHT22;15148;48.972;12.794;2023-02-11T23:15:09;1.00;99.90
27759;DHT22;15148;48.972;12.794;2023-02-11T23:20:11;1.00;99.90
27759;DHT22;15148;48.972;12.794;2023-02-11T23:25:14;1.00;99.90
27759;DHT22;15148;48.972;12.794;2023-02-11T23:30:16;1.00;99.90
27759;DHT22;15148;48.972;12.794;2023-02-11T23:35:19;1.00;99.90
27759;DHT22;15148;48.972;12.794;2023-02-11T23:40:25;1.00;99.90
27759;DHT22;15148;48.972;12.794;2023-02-11T23:45:27;1.00;99.90
27759;DHT22;15148;48.972;12.794;2023-02-11T23:50:28;1.00;99.90
27759;DHT22;15148;48.972;12.794;2023-02-11T23:55:30;1.00;99.90
